Time,TemperatureF,DewpointF,PressureIn,WindDirection,WindDirectionDegrees,WindSpeedMPH,WindSpeedGustMPH,Humidity,HourlyPrecipIn,Conditions,Clouds,dailyrainin,SoftwareType,DateUTC
2013-07-25 00:13:00,55.6,51.0,30.03,NNW,327,0.0,1.0,84,0.00,,,0.64,weatherlink.com 1.10,2013-07-25 04:13:00,
2013-07-25 00:28:00,55.2,50.0,30.03,NNW,327,0.0,0.0,83,0.00,,,0.00,weatherlink.com 1.10,2013-07-25 04:28:00,
2013-07-25 00:43:00,54.3,51.0,30.04,NNW,327,0.0,0.0,87,0.00,,,0.00,weatherlink.com 1.10,2013-07-25 04:43:00,
2013-07-25 00:58:00,53.0,50.0,30.04,NNW,327,0.0,1.0,88,0.00,,,0.00,weatherlink.com 1.10,2013-07-25 04:58:00,
2013-07-25 01:13:00,51.8,49.0,30.04,NNW,327,0.0,1.0,91,0.00,,,0.00,weatherlink.com 1.10,2013-07-25 05:13:00,
2013-07-25 01:28:00,51.0,49.0,30.04,NNW,327,0.0,0.0,92,0.00,,,0.00,weatherlink.com 1.10,2013-07-25 05:28:00,
2013-07-25 01:43:00,50.5,49.0,30.04,NNW,327,0.0,0.0,93,0.00,,,0.00,weatherlink.com 1.10,2013-07-25 05:43:00,
2013-07-25 01:58:00,50.1,49.0,30.04,NNW,327,0.0,0.0,94,0.00,,,0.00,weatherlink.com 1.10,2013-07-25 05:58:00,
2013-07-25 02:13:00,49.8,48.0,30.04,NNW,327,0.0,1.0,94,0.00,,,0.00,weatherlink.com 1.10,2013-07-25 06:13:00,
2013-07-25 02:28:00,49.2,48.0,30.04,NNW,327,0.0,0.0,95,0.00,,,0.00,weatherlink.com 1.10,2013-07-25 06:28:00,
2013-07-25 02:44:00,49.0,48.0,30.04,NNW,327,0.0,0.0,95,0.00,,,0.00,weatherlink.com 1.10,2013-07-25 06:44:00,
2013-07-25 02:59:00,48.9,48.0,30.04,NNW,327,0.0,0.0,96,0.00,,,0.00,weatherlink.com 1.10,2013-07-25 06:59:00,
2013-07-25 03:14:00,48.6,48.0,30.04,NNW,327,0.0,0.0,96,0.00,,,0.00,weatherlink.com 1.10,2013-07-25 07:14:00,
2013-07-25 03:29:00,48.5,48.0,30.04,NNW,327,0.0,0.0,96,0.00,,,0.00,weatherlink.com 1.10,2013-07-25 07:29:00,
2013-07-25 03:44:00,48.3,47.0,30.05,NNW,327,0.0,0.0,96,0.00,,,0.00,weatherlink.com 1.10,2013-07-25 07:44:00,
2013-07-25 03:59:00,48.0,47.0,30.05,NNW,327,0.0,0.0,96,0.00,,,0.00,weatherlink.com 1.10,2013-07-25 07:59:00,
2013-07-25 04:14:00,48.1,47.0,30.05,NNW,327,0.0,1.0,96,0.00,,,0.00,weatherlink.com 1.10,2013-07-25 08:14:00,
2013-07-25 04:29:00,47.9,47.0,30.05,NNW,327,0.0,1.0,96,0.00,,,0.00,weatherlink.com 1.10,2013-07-25 08:29:00,
2013-07-25 04:44:00,48.0,47.0,30.05,NNW,327,0.0,1.0,96,0.00,,,0.00,weatherlink.com 1.10,2013-07-25 08:44:00,
2013-07-25 04:59:00,48.0,47.0,30.06,NW,320,0.0,0.0,96,0.00,,,0.00,weatherlink.com 1.10,2013-07-25 08:59:00,
2013-07-25 05:14:00,48.0,47.0,30.06,NW,320,0.0,0.0,96,0.00,,,0.00,weatherlink.com 1.10,2013-07-25 09:14:00,
2013-07-25 05:29:00,48.1,47.0,30.07,NW,321,0.0,1.0,96,0.00,,,0.00,weatherlink.com 1.10,2013-07-25 09:29:00,
2013-07-25 05:44:00,47.9,47.0,30.07,NW,321,0.0,1.0,95,0.00,,,0.00,weatherlink.com 1.10,2013-07-25 09:44:00,
2013-07-25 05:59:00,48.6,47.0,30.08,NW,321,0.0,2.0,95,0.00,,,0.00,weatherlink.com 1.10,2013-07-25 09:59:00,
2013-07-25 06:14:00,49.2,47.0,30.08,NE,37,3.0,3.0,93,0.00,,,0.00,weatherlink.com 1.10,2013-07-25 10:14:00,
2013-07-25 06:29:00,50.6,48.0,30.08,NNE,19,2.0,2.0,92,0.00,,,0.00,weatherlink.com 1.10,2013-07-25 10:29:00,
2013-07-25 06:44:00,52.1,49.0,30.09,NNW,340,0.0,2.0,90,0.00,,,0.00,weatherlink.com 1.10,2013-07-25 10:44:00,
2013-07-25 06:59:00,53.1,50.0,30.09,NNW,343,1.0,2.0,89,0.00,,,0.00,weatherlink.com 1.10,2013-07-25 10:59:00,
2013-07-25 07:14:00,55.1,51.0,30.10,NNE,28,2.0,3.0,86,0.00,,,0.00,weatherlink.com 1.10,2013-07-25 11:14:00,
2013-07-25 07:29:00,56.1,49.0,30.11,NNE,22,3.0,6.0,76,0.00,,,0.00,weatherlink.com 1.10,2013-07-25 11:29:00,
2013-07-25 07:44:00,56.8,49.0,30.10,NNW,338,1.0,6.0,74,0.00,,,0.00,weatherlink.com 1.10,2013-07-25 11:44:00,
2013-07-25 07:59:00,57.0,48.0,30.11,North,6,2.0,6.0,72,0.00,,,0.00,weatherlink.com 1.10,2013-07-25 11:59:00,
2013-07-25 08:14:00,57.7,49.0,30.11,NW,321,0.0,8.0,72,0.00,,,0.00,weatherlink.com 1.10,2013-07-25 12:14:00,
2013-07-25 08:29:00,58.0,48.0,30.11,NNW,331,3.0,11.0,69,0.00,,,0.00,weatherlink.com 1.10,2013-07-25 12:29:00,
2013-07-25 08:44:00,58.5,47.0,30.11,NE,42,5.0,10.0,65,0.00,,,0.00,weatherlink.com 1.10,2013-07-25 12:44:00,
2013-07-25 08:59:00,59.3,48.0,30.12,North,358,2.0,7.0,66,0.00,,,0.00,weatherlink.com 1.10,2013-07-25 12:59:00,
2013-07-25 09:14:00,59.4,48.0,30.13,North,360,2.0,9.0,67,0.00,,,0.00,weatherlink.com 1.10,2013-07-25 13:14:00,
2013-07-25 09:30:00,60.5,48.0,30.13,NNW,342,2.0,8.0,64,0.00,,,0.00,weatherlink.com 1.10,2013-07-25 13:30:00,
2013-07-25 09:45:00,60.7,47.0,30.13,NW,321,2.0,8.0,60,0.00,,,0.00,weatherlink.com 1.10,2013-07-25 13:45:00,
2013-07-25 10:00:00,61.1,47.0,30.12,North,1,2.0,8.0,60,0.00,,,0.00,weatherlink.com 1.10,2013-07-25 14:00:00,
2013-07-25 10:15:00,61.1,48.0,30.13,NW,323,1.0,7.0,62,0.00,,,0.00,weatherlink.com 1.10,2013-07-25 14:15:00,
2013-07-25 10:30:00,62.4,49.0,30.14,NNW,348,6.0,6.0,61,0.00,,,0.00,weatherlink.com 1.10,2013-07-25 14:30:00,
2013-07-25 10:45:00,62.3,48.0,30.13,North,354,2.0,7.0,61,0.00,,,0.00,weatherlink.com 1.10,2013-07-25 14:45:00,
2013-07-25 11:00:00,62.8,49.0,30.13,NNW,331,4.0,9.0,62,0.00,,,0.00,weatherlink.com 1.10,2013-07-25 15:00:00,
2013-07-25 11:15:00,63.6,50.0,30.13,North,356,3.0,7.0,61,0.00,,,0.00,weatherlink.com 1.10,2013-07-25 15:15:00,
2013-07-25 11:30:00,63.4,50.0,30.13,NNE,13,2.0,6.0,62,0.00,,,0.00,weatherlink.com 1.10,2013-07-25 15:30:00,
2013-07-25 11:45:00,63.6,51.0,30.13,NNW,332,3.0,7.0,63,0.00,,,0.00,weatherlink.com 1.10,2013-07-25 15:45:00,
2013-07-25 12:00:00,63.9,50.0,30.13,NW,313,2.0,7.0,62,0.00,,,0.00,weatherlink.com 1.10,2013-07-25 16:00:00,
2013-07-25 12:15:00,64.6,50.0,30.13,NNE,13,3.0,4.0,60,0.00,,,0.00,weatherlink.com 1.10,2013-07-25 16:15:00,
2013-07-25 12:30:00,64.7,51.0,30.13,WSW,252,1.0,6.0,62,0.00,,,0.00,weatherlink.com 1.10,2013-07-25 16:30:00,
2013-07-25 12:45:00,64.4,51.0,30.12,WNW,287,0.0,6.0,63,0.00,,,0.00,weatherlink.com 1.10,2013-07-25 16:45:00,
2013-07-25 13:00:00,64.3,52.0,30.12,NW,312,1.0,8.0,64,0.00,,,0.00,weatherlink.com 1.10,2013-07-25 17:00:00,
2013-07-25 13:15:00,64.5,51.0,30.12,NNW,347,1.0,7.0,62,0.00,,,0.00,weatherlink.com 1.10,2013-07-25 17:15:00,
2013-07-25 13:30:00,65.3,52.0,30.12,NW,307,1.0,5.0,63,0.00,,,0.00,weatherlink.com 1.10,2013-07-25 17:30:00,
2013-07-25 13:45:00,65.8,52.0,30.12,North,350,4.0,6.0,61,0.00,,,0.00,weatherlink.com 1.10,2013-07-25 17:45:00,
2013-07-25 14:00:00,66.1,53.0,30.12,NW,324,3.0,6.0,62,0.00,,,0.00,weatherlink.com 1.10,2013-07-25 18:00:00,
2013-07-25 14:15:00,66.4,53.0,30.11,NW,323,1.0,5.0,62,0.00,,,0.00,weatherlink.com 1.10,2013-07-25 18:15:00,
2013-07-25 14:30:00,66.6,53.0,30.11,NW,317,1.0,4.0,62,0.00,,,0.00,weatherlink.com 1.10,2013-07-25 18:30:00,
2013-07-25 14:45:00,67.4,53.0,30.11,NW,306,1.0,5.0,61,0.00,,,0.00,weatherlink.com 1.10,2013-07-25 18:45:00,
2013-07-25 15:00:00,67.6,55.0,30.10,WNW,292,0.0,5.0,64,0.00,,,0.00,weatherlink.com 1.10,2013-07-25 19:00:00,
2013-07-25 15:15:00,68.2,54.0,30.10,NNW,338,4.0,7.0,61,0.00,,,0.00,weatherlink.com 1.10,2013-07-25 19:15:00,
2013-07-25 15:30:00,68.4,54.0,30.09,NNW,346,3.0,6.0,61,0.00,,,0.00,weatherlink.com 1.10,2013-07-25 19:30:00,
2013-07-25 15:45:00,68.6,54.0,30.09,NNW,335,5.0,7.0,60,0.00,,,0.00,weatherlink.com 1.10,2013-07-25 19:45:00,
2013-07-25 16:00:00,69.4,55.0,30.09,NW,315,1.0,5.0,60,0.00,,,0.00,weatherlink.com 1.10,2013-07-25 20:00:00,
2013-07-25 16:15:00,69.4,55.0,30.09,NNW,340,1.0,8.0,60,0.00,,,0.00,weatherlink.com 1.10,2013-07-25 20:15:00,
2013-07-25 16:30:00,69.5,55.0,30.09,West,259,0.0,5.0,60,0.00,,,0.00,weatherlink.com 1.10,2013-07-25 20:30:00,
2013-07-25 17:00:00,69.3,55.0,30.09,North,355,3.0,7.0,60,0.00,,,0.00,weatherlink.com 1.10,2013-07-25 21:00:00,
2013-07-25 17:15:00,69.7,55.0,30.09,NW,311,0.0,4.0,60,0.00,,,0.00,weatherlink.com 1.10,2013-07-25 21:15:00,
2013-07-25 17:30:00,70.2,55.0,30.09,NNW,340,2.0,7.0,59,0.00,,,0.00,weatherlink.com 1.10,2013-07-25 21:30:00,
2013-07-25 17:45:00,70.3,55.0,30.09,NW,321,1.0,4.0,59,0.00,,,0.00,weatherlink.com 1.10,2013-07-25 21:45:00,
2013-07-25 18:00:00,70.2,56.0,30.08,NW,325,1.0,3.0,60,0.00,,,0.00,weatherlink.com 1.10,2013-07-25 22:00:00,
2013-07-25 18:15:00,69.9,55.0,30.08,NW,319,0.0,6.0,60,0.00,,,0.00,weatherlink.com 1.10,2013-07-25 22:15:00,
2013-07-25 18:30:00,70.2,55.0,30.09,NNW,336,0.0,5.0,59,0.00,,,0.00,weatherlink.com 1.10,2013-07-25 22:30:00,
2013-07-25 18:45:00,69.2,55.0,30.09,NW,311,0.0,5.0,61,0.00,,,0.00,weatherlink.com 1.10,2013-07-25 22:45:00,
2013-07-25 19:00:00,68.4,55.0,30.09,NNW,336,0.0,3.0,63,0.00,,,0.00,weatherlink.com 1.10,2013-07-25 23:00:00,
2013-07-25 19:15:00,67.7,55.0,30.09,North,356,1.0,4.0,64,0.00,,,0.00,weatherlink.com 1.10,2013-07-25 23:15:00,
2013-07-25 19:30:00,67.2,55.0,30.10,NW,312,1.0,2.0,65,0.00,,,0.00,weatherlink.com 1.10,2013-07-25 23:30:00,
2013-07-25 19:45:00,66.7,54.0,30.10,NNW,331,0.0,2.0,65,0.00,,,0.00,weatherlink.com 1.10,2013-07-25 23:45:00,
2013-07-25 20:00:00,66.2,55.0,30.09,NNW,328,0.0,1.0,67,0.00,,,0.00,weatherlink.com 1.10,2013-07-26 00:00:00,
2013-07-25 20:15:00,65.7,55.0,30.09,NNW,344,0.0,2.0,69,0.00,,,0.00,weatherlink.com 1.10,2013-07-26 00:15:00,
2013-07-25 20:30:00,64.9,55.0,30.09,NNW,344,0.0,0.0,71,0.00,,,0.00,weatherlink.com 1.10,2013-07-26 00:30:00,
2013-07-25 20:45:00,63.5,55.0,30.10,NNW,344,0.0,0.0,74,0.00,,,0.00,weatherlink.com 1.10,2013-07-26 00:45:00,
2013-07-25 21:00:00,62.1,55.0,30.10,NNW,344,0.0,1.0,78,0.00,,,0.00,weatherlink.com 1.10,2013-07-26 01:00:00,
2013-07-25 21:15:00,60.7,55.0,30.11,NNW,344,0.0,0.0,80,0.00,,,0.00,weatherlink.com 1.10,2013-07-26 01:15:00,
2013-07-25 21:30:00,60.1,55.0,30.11,NNW,344,0.0,0.0,82,0.00,,,0.00,weatherlink.com 1.10,2013-07-26 01:30:00,
2013-07-25 21:45:00,59.6,55.0,30.11,NNW,344,0.0,0.0,84,0.00,,,0.00,weatherlink.com 1.10,2013-07-26 01:45:00,
2013-07-25 22:00:00,59.0,55.0,30.11,NNW,344,0.0,0.0,85,0.00,,,0.00,weatherlink.com 1.10,2013-07-26 02:00:00,
2013-07-25 22:15:00,57.9,54.0,30.11,NNW,344,0.0,0.0,87,0.00,,,0.00,weatherlink.com 1.10,2013-07-26 02:15:00,
2013-07-25 22:30:00,57.2,54.0,30.11,NNW,344,0.0,0.0,89,0.00,,,0.00,weatherlink.com 1.10,2013-07-26 02:30:00,
2013-07-25 22:45:00,57.1,54.0,30.10,NNW,344,0.0,0.0,89,0.00,,,0.00,weatherlink.com 1.10,2013-07-26 02:45:00,
2013-07-25 23:00:00,56.9,54.0,30.10,NNW,345,0.0,1.0,89,0.00,,,0.00,weatherlink.com 1.10,2013-07-26 03:00:00,
2013-07-25 23:15:00,56.6,54.0,30.10,NNW,344,0.0,0.0,90,0.00,,,0.00,weatherlink.com 1.10,2013-07-26 03:15:00,
2013-07-25 23:30:00,56.4,54.0,30.10,NNW,344,0.0,0.0,91,0.00,,,0.00,weatherlink.com 1.10,2013-07-26 03:30:00,
2013-07-25 23:45:00,56.2,54.0,30.09,NNW,344,0.0,1.0,91,0.00,,,0.00,weatherlink.com 1.10,2013-07-26 03:45:00,